Time;durP1;ratioP1;P1;durP2;ratioP2;P2;SDS_P1;SDS_P2;PMS_P1;PMS_P2;Temp;Humidity;BMP_temperature;BMP_pressure;BME280_temperature;BME280_humidity;BME280_pressure;Samples;Min_cycle;Max_cycle;Signal;HPM_P1;HPM_P2
2022/05/30 00:01:04;;;;;;;4.97;1.58;;;10.30;68.80;;;;;;5092528;28;20060;-86
2022/05/30 00:03:31;;;;;;;6.13;1.48;;;10.30;68.90;;;;;;5091176;28;20047;-85
2022/05/30 00:05:58;;;;;;;6.20;1.55;;;10.30;68.90;;;;;;5092583;28;20145;-85
2022/05/30 00:08:24;;;;;;;6.00;1.50;;;10.20;68.90;;;;;;5091363;28;20040;-85
2022/05/30 00:10:52;;;;;;;4.30;1.48;;;10.20;68.90;;;;;;5093192;28;20052;-85
2022/05/30 00:13:19;;;;;;;7.05;1.60;;;10.20;68.90;;;;;;5091994;28;20040;-84
2022/05/30 00:15:46;;;;;;;3.35;1.48;;;10.20;69.00;;;;;;5091726;28;20051;-86
2022/05/30 00:18:13;;;;;;;4.78;1.50;;;10.20;69.00;;;;;;5091962;28;20047;-85
2022/05/30 00:20:44;;;;;;;7.60;2.03;;;10.10;69.00;;;;;;5092184;28;20051;-85
2022/05/30 00:23:12;;;;;;;5.57;1.80;;;10.10;69.10;;;;;;5076163;28;20098;-84
2022/05/30 00:25:41;;;;;;;4.82;1.85;;;10.10;69.10;;;;;;5089929;28;20052;-84
2022/05/30 00:28:08;;;;;;;5.47;1.92;;;10.00;69.20;;;;;;5092394;28;20048;-85
2022/05/30 00:30:36;;;;;;;6.35;2.00;;;10.00;69.20;;;;;;5091564;28;20113;-84
2022/05/30 00:33:03;;;;;;;6.35;1.60;;;10.00;69.30;;;;;;5091730;28;20502;-84
2022/05/30 00:35:31;;;;;;;5.78;1.92;;;10.00;69.30;;;;;;5091735;28;20048;-84
2022/05/30 00:37:58;;;;;;;6.13;2.00;;;9.90;69.40;;;;;;5092668;28;20048;-85
2022/05/30 00:40:25;;;;;;;4.53;1.80;;;9.90;69.40;;;;;;5092019;28;20043;-84
2022/05/30 00:42:52;;;;;;;5.53;1.55;;;9.90;69.50;;;;;;5091611;28;20048;-84
2022/05/30 00:45:19;;;;;;;4.25;1.70;;;9.90;69.50;;;;;;5090972;28;20044;-85
2022/05/30 00:47:47;;;;;;;5.35;1.98;;;9.90;69.50;;;;;;5091471;28;20441;-85
2022/05/30 00:50:14;;;;;;;5.05;2.00;;;9.90;69.50;;;;;;5090213;28;20089;-84
2022/05/30 00:52:44;;;;;;;5.07;1.88;;;9.90;69.50;;;;;;5093592;28;20044;-84
2022/05/30 00:55:21;;;;;;;5.50;2.00;;;9.80;69.60;;;;;;5091020;28;20048;-84
2022/05/30 00:57:48;;;;;;;4.88;1.50;;;9.80;69.70;;;;;;5091120;28;20383;-84
2022/05/30 01:00:25;;;;;;;6.18;1.98;;;9.80;69.70;;;;;;5091014;28;20069;-84
2022/05/30 01:08:28;;;;;;;6.28;1.88;;;9.70;69.70;;;;;;5077267;28;20040;-85
2022/05/30 01:10:55;;;;;;;7.68;2.00;;;9.70;69.70;;;;;;5091489;28;20060;-85
2022/05/30 01:13:24;;;;;;;3.90;1.70;;;9.60;69.80;;;;;;5090731;28;20048;-85
2022/05/30 01:15:51;;;;;;;7.40;2.05;;;9.60;69.80;;;;;;5090940;28;20051;-85
2022/05/30 01:18:23;;;;;;;5.30;2.08;;;9.60;69.80;;;;;;5089520;28;20116;-85
2022/05/30 01:21:28;;;;;;;8.00;2.03;;;9.50;69.90;;;;;;5090973;28;20059;-85
2022/05/30 01:23:58;;;;;;;6.63;2.00;;;9.50;69.90;;;;;;5090836;28;20048;-84
2022/05/30 01:26:34;;;;;;;5.25;1.80;;;9.50;69.90;;;;;;5089833;28;20055;-84
2022/05/30 01:29:36;;;;;;;6.80;1.92;;;9.50;69.90;;;;;;5090689;28;20109;-84
2022/05/30 01:32:04;;;;;;;4.82;1.80;;;9.40;70.00;;;;;;5089862;28;20079;-84
2022/05/30 01:34:31;;;;;;;7.88;2.25;;;9.40;70.00;;;;;;5092829;28;20055;-84
2022/05/30 01:36:59;;;;;;;8.88;2.42;;;9.40;70.10;;;;;;5090547;28;20464;-85
2022/05/30 01:39:26;;;;;;;4.85;2.08;;;9.40;70.10;;;;;;5090540;28;20044;-84
2022/05/30 01:41:53;;;;;;;5.63;1.80;;;9.40;70.20;;;;;;5090589;28;20105;-84
2022/05/30 01:44:20;;;;;;;7.00;1.80;;;9.40;70.20;;;;;;5089050;28;20437;-84
2022/05/30 01:46:47;;;;;;;7.13;2.10;;;9.40;70.30;;;;;;5091821;28;20060;-84
2022/05/30 01:49:14;;;;;;;8.35;2.15;;;9.30;70.20;;;;;;5091403;28;20065;-84
2022/05/30 01:51:42;;;;;;;6.22;2.20;;;9.30;70.20;;;;;;5090383;28;20065;-84
2022/05/30 01:54:09;;;;;;;4.93;2.28;;;9.30;70.20;;;;;;5089130;28;20048;-84
2022/05/30 01:56:36;;;;;;;5.97;2.33;;;9.30;70.20;;;;;;5088220;28;20089;-84
2022/05/30 01:59:03;;;;;;;4.35;2.03;;;9.30;70.20;;;;;;5088824;28;20406;-84
2022/05/30 02:01:30;;;;;;;5.63;2.00;;;9.20;70.20;;;;;;5091204;28;20048;-84
2022/05/30 02:03:58;;;;;;;4.93;2.00;;;9.20;70.20;;;;;;5089141;28;20044;-84
2022/05/30 02:06:26;;;;;;;5.38;1.90;;;9.20;70.20;;;;;;5089126;28;20048;-84
2022/05/30 02:08:54;;;;;;;8.18;2.03;;;9.20;70.20;;;;;;5088783;28;20126;-84
2022/05/30 02:11:21;;;;;;;6.22;2.22;;;9.20;70.20;;;;;;5089980;28;20044;-84
2022/05/30 02:13:48;;;;;;;5.35;2.30;;;9.20;70.20;;;;;;5090404;28;20044;-83
2022/05/30 02:19:02;;;;;;;6.55;2.20;;;9.10;70.20;;;;;;5093025;28;20048;-85
2022/05/30 02:21:32;;;;;;;6.60;2.15;;;9.10;70.20;;;;;;5094187;28;20101;-84
2022/05/30 02:23:59;;;;;;;5.00;2.13;;;9.10;70.20;;;;;;5094181;28;20571;-84
2022/05/30 02:26:26;;;;;;;5.28;2.30;;;9.10;70.20;;;;;;5093958;28;20039;-84
2022/05/30 02:28:53;;;;;;;5.50;2.38;;;9.10;70.20;;;;;;5094827;28;20510;-84
2022/05/30 02:31:20;;;;;;;4.72;1.88;;;9.00;70.10;;;;;;5096007;28;20060;-84
2022/05/30 02:36:43;;;;;;;5.68;2.40;;;9.00;70.20;;;;;;5092708;28;20040;-84
2022/05/30 02:39:17;;;;;;;7.80;2.50;;;9.00;70.20;;;;;;5093899;28;20614;-84
2022/05/30 02:41:47;;;;;;;6.95;2.35;;;9.00;70.20;;;;;;5093820;28;20040;-84
2022/05/30 02:44:19;;;;;;;6.45;1.90;;;9.00;70.20;;;;;;5078294;28;20102;-84
2022/05/30 02:46:47;;;;;;;8.13;2.38;;;8.90;70.20;;;;;;5094197;28;20461;-84
2022/05/30 02:49:14;;;;;;;6.55;2.45;;;8.90;70.20;;;;;;5093405;28;20134;-84
2022/05/30 02:51:41;;;;;;;6.75;2.60;;;8.90;70.20;;;;;;5093740;28;20464;-84
2022/05/30 02:54:08;;;;;;;6.55;2.30;;;8.90;70.20;;;;;;5093725;28;20040;-84
2022/05/30 02:56:35;;;;;;;4.40;2.28;;;8.90;70.20;;;;;;5093294;28;20563;-83
2022/05/30 02:59:03;;;;;;;5.72;2.15;;;8.90;70.20;;;;;;5092621;28;20068;-84
2022/05/30 03:01:31;;;;;;;3.90;1.85;;;8.90;70.20;;;;;;5095659;28;20048;-83
2022/05/30 03:03:59;;;;;;;9.15;2.42;;;8.90;70.20;;;;;;5093531;28;20180;-85
2022/05/30 03:06:26;;;;;;;5.13;2.28;;;8.80;70.20;;;;;;5093533;28;20486;-84
2022/05/30 03:08:53;;;;;;;7.20;2.83;;;8.80;70.20;;;;;;5093272;28;20460;-84
2022/05/30 03:11:20;;;;;;;7.35;2.47;;;8.80;70.20;;;;;;5093257;28;20044;-84
2022/05/30 03:13:47;;;;;;;5.32;2.30;;;8.80;70.20;;;;;;5094932;28;20051;-84
2022/05/30 03:16:14;;;;;;;5.18;2.55;;;8.70;70.20;;;;;;5092919;28;20044;-83
2022/05/30 03:18:43;;;;;;;7.60;2.50;;;8.80;70.30;;;;;;5093145;28;20052;-84
2022/05/30 03:21:10;;;;;;;7.68;2.55;;;8.70;70.30;;;;;;5093198;28;20089;-83
2022/05/30 03:23:37;;;;;;;5.25;2.15;;;8.70;70.30;;;;;;5093283;28;20069;-83
2022/05/30 03:26:05;;;;;;;5.38;2.33;;;8.70;70.30;;;;;;5092787;28;20460;-83
2022/05/30 03:28:33;;;;;;;5.18;2.42;;;8.60;70.30;;;;;;5094324;28;20650;-83
2022/05/30 03:31:01;;;;;;;7.88;2.60;;;8.60;70.30;;;;;;5092934;28;20105;-83
2022/05/30 03:33:28;;;;;;;5.45;2.25;;;8.60;70.30;;;;;;5091700;28;20044;-83
2022/05/30 03:35:56;;;;;;;5.38;2.45;;;8.60;70.40;;;;;;5091794;28;20044;-83
2022/05/30 03:38:22;;;;;;;4.90;2.40;;;8.50;70.40;;;;;;5092543;28;20044;-83
2022/05/30 03:40:49;;;;;;;5.43;2.47;;;8.50;70.40;;;;;;5094034;28;20109;-83
2022/05/30 03:43:16;;;;;;;6.43;2.53;;;8.50;70.40;;;;;;5094081;28;20052;-83
2022/05/30 03:45:44;;;;;;;6.28;2.17;;;8.50;70.30;;;;;;5092473;28;20090;-83
2022/05/30 03:48:14;;;;;;;6.20;2.17;;;8.50;70.30;;;;;;5092578;28;20082;-83
2022/05/30 03:50:42;;;;;;;5.95;2.15;;;8.40;70.30;;;;;;5092676;28;20501;-84
2022/05/30 03:53:09;;;;;;;5.50;2.40;;;8.40;70.30;;;;;;5091613;28;20064;-83
2022/05/30 03:55:44;;;;;;;5.03;2.03;;;8.40;70.30;;;;;;5093257;28;20052;-83
2022/05/30 03:58:12;;;;;;;8.23;2.83;;;8.40;70.30;;;;;;5091545;28;20048;-83
2022/05/30 04:00:42;;;;;;;5.28;2.58;;;8.40;70.30;;;;;;5092373;28;20044;-83
2022/05/30 04:03:09;;;;;;;6.40;2.20;;;8.30;70.20;;;;;;5092493;28;20097;-83
2022/05/30 04:05:38;;;;;;;6.60;2.33;;;8.30;70.30;;;;;;5089855;28;20071;-83
2022/05/30 04:08:05;;;;;;;5.63;2.75;;;8.30;70.30;;;;;;5091931;28;20044;-83
2022/05/30 04:10:32;;;;;;;4.30;2.40;;;8.30;70.30;;;;;;5094357;28;20047;-83
2022/05/30 04:13:05;;;;;;;7.28;2.83;;;8.30;70.30;;;;;;5092156;28;20583;-83
2022/05/30 04:15:32;;;;;;;5.45;2.17;;;8.20;70.40;;;;;;5092111;28;20062;-84
2022/05/30 04:17:59;;;;;;;6.20;2.45;;;8.20;70.40;;;;;;5092041;28;20121;-84
2022/05/30 04:20:26;;;;;;;5.32;2.50;;;8.20;70.40;;;;;;5092118;28;20040;-83
2022/05/30 04:22:53;;;;;;;6.03;2.35;;;8.20;70.50;;;;;;5092407;28;20055;-83
2022/05/30 04:25:21;;;;;;;4.45;2.10;;;8.20;70.50;;;;;;5093604;28;20056;-83
2022/05/30 04:27:48;;;;;;;6.55;2.75;;;8.10;70.50;;;;;;5091951;28;20052;-83
2022/05/30 04:30:15;;;;;;;4.43;2.20;;;8.10;70.50;;;;;;5091897;28;20044;-83
2022/05/30 04:32:42;;;;;;;6.60;3.00;;;8.10;70.50;;;;;;5090511;28;20117;-83
2022/05/30 04:35:09;;;;;;;6.72;2.60;;;8.10;70.60;;;;;;5091889;28;20036;-83
2022/05/30 04:37:36;;;;;;;6.63;2.33;;;8.10;70.60;;;;;;5092206;28;20105;-83
2022/05/30 04:40:04;;;;;;;9.23;2.63;;;8.10;70.70;;;;;;5091344;28;20105;-83
2022/05/30 04:42:31;;;;;;;7.22;2.60;;;8.00;70.70;;;;;;5091426;28;20494;-83
2022/05/30 04:44:58;;;;;;;8.63;2.60;;;8.00;70.80;;;;;;5089988;28;20048;-83
2022/05/30 04:47:25;;;;;;;6.03;2.80;;;8.00;70.90;;;;;;5091577;28;20044;-82
2022/05/30 04:49:52;;;;;;;6.40;3.47;;;8.00;70.90;;;;;;5092410;28;20455;-84
2022/05/30 04:52:19;;;;;;;7.45;2.85;;;8.00;71.00;;;;;;5091393;28;20051;-84
2022/05/30 04:54:46;;;;;;;7.10;2.95;;;8.00;71.10;;;;;;5091417;28;20048;-84
2022/05/30 04:57:13;;;;;;;5.28;2.70;;;8.00;71.20;;;;;;5091426;28;20093;-84
2022/05/30 04:59:41;;;;;;;5.40;2.85;;;8.00;71.30;;;;;;5091313;28;20055;-84
2022/05/30 05:02:09;;;;;;;7.03;3.17;;;8.00;71.30;;;;;;5091386;28;20085;-84
2022/05/30 05:04:39;;;;;;;5.70;2.88;;;8.00;71.40;;;;;;5093387;28;20087;-84
2022/05/30 05:07:06;;;;;;;9.30;3.08;;;8.10;71.50;;;;;;5090789;28;20044;-84
2022/05/30 05:09:44;;;;;;;6.15;2.70;;;8.10;71.60;;;;;;5090921;28;20048;-83
2022/05/30 05:12:11;;;;;;;5.47;2.65;;;8.10;71.70;;;;;;5089728;28;20114;-83
2022/05/30 05:14:38;;;;;;;6.78;2.92;;;8.10;71.70;;;;;;5091286;28;20040;-84
2022/05/30 05:17:06;;;;;;;6.57;2.65;;;8.10;71.80;;;;;;5089999;28;20044;-83
2022/05/30 05:19:34;;;;;;;6.78;3.20;;;8.10;71.90;;;;;;5093149;28;20044;-83
2022/05/30 05:22:01;;;;;;;6.45;3.05;;;8.10;72.00;;;;;;5090461;28;20056;-83
2022/05/30 05:24:28;;;;;;;11.82;2.92;;;8.20;72.10;;;;;;5089398;28;20490;-83
2022/05/30 05:26:55;;;;;;;12.43;3.40;;;8.20;72.20;;;;;;5089610;28;20044;-83
2022/05/30 05:29:22;;;;;;;6.57;3.38;;;8.20;72.30;;;;;;5090840;28;20044;-83
2022/05/30 05:31:49;;;;;;;6.22;3.42;;;8.30;72.40;;;;;;5092339;28;20497;-83
2022/05/30 05:34:17;;;;;;;6.85;3.03;;;8.30;72.50;;;;;;5091438;28;20051;-83
2022/05/30 05:36:46;;;;;;;6.78;3.10;;;8.30;72.50;;;;;;5090649;28;20506;-83
2022/05/30 05:39:15;;;;;;;5.72;3.25;;;8.40;72.60;;;;;;5090454;28;20051;-83
2022/05/30 05:41:44;;;;;;;6.45;3.30;;;8.40;72.70;;;;;;5090711;28;20044;-83
2022/05/30 05:44:13;;;;;;;6.97;3.20;;;8.40;72.80;;;;;;5072095;28;20045;-83
2022/05/30 05:46:40;;;;;;;7.00;3.50;;;8.50;72.80;;;;;;5088647;28;20160;-83
2022/05/30 05:49:09;;;;;;;7.63;3.67;;;8.50;72.90;;;;;;5090183;28;20044;-83
2022/05/30 05:51:37;;;;;;;7.25;3.47;;;8.50;72.90;;;;;;5088896;28;20052;-83
2022/05/30 05:54:05;;;;;;;7.45;2.80;;;8.60;73.00;;;;;;5089844;28;20048;-82
2022/05/30 05:56:34;;;;;;;5.97;2.90;;;8.60;73.00;;;;;;5090461;28;20398;-83
2022/05/30 05:59:01;;;;;;;7.38;3.20;;;8.70;73.10;;;;;;5089061;28;20052;-83
2022/05/30 06:01:31;;;;;;;5.95;3.00;;;8.80;73.10;;;;;;5092360;28;20494;-83
2022/05/30 06:04:01;;;;;;;6.30;2.85;;;8.80;73.10;;;;;;5088590;28;20047;-83
2022/05/30 06:06:28;;;;;;;11.38;4.10;;;8.90;73.20;;;;;;5090236;28;20251;-85
2022/05/30 06:09:01;;;;;;;5.90;3.15;;;8.90;73.20;;;;;;5090066;28;20497;-84
2022/05/30 06:11:28;;;;;;;7.10;3.03;;;9.00;73.20;;;;;;5089139;28;20047;-83
2022/05/30 06:13:55;;;;;;;6.28;3.10;;;9.10;73.20;;;;;;5090579;28;20047;-83
2022/05/30 06:16:29;;;;;;;6.47;3.05;;;9.20;73.20;;;;;;5092086;28;20058;-83
2022/05/30 06:18:59;;;;;;;6.45;3.08;;;9.30;73.20;;;;;;5089598;28;20048;-84
2022/05/30 06:21:28;;;;;;;7.50;3.58;;;9.40;73.20;;;;;;5090012;28;20452;-84
2022/05/30 06:23:56;;;;;;;7.75;3.00;;;9.40;73.20;;;;;;5090015;28;20498;-83
2022/05/30 06:26:23;;;;;;;7.43;3.70;;;9.50;73.20;;;;;;5090058;28;20044;-84
2022/05/30 06:28:51;;;;;;;9.25;3.55;;;9.60;73.20;;;;;;5089621;28;20154;-83
2022/05/30 06:31:20;;;;;;;7.28;3.38;;;9.70;73.30;;;;;;5075762;28;20136;-84
2022/05/30 06:33:48;;;;;;;7.57;3.25;;;9.80;73.30;;;;;;5084580;28;20101;-84
2022/05/30 06:36:17;;;;;;;7.55;3.55;;;9.90;73.30;;;;;;5083266;28;20052;-84
2022/05/30 06:38:46;;;;;;;7.18;3.88;;;9.90;73.20;;;;;;5073977;28;20141;-84
2022/05/30 06:41:19;;;;;;;10.00;3.20;;;10.00;73.20;;;;;;5086472;28;20620;-84
2022/05/30 06:43:53;;;;;;;8.38;3.30;;;10.10;73.20;;;;;;5086900;28;20433;-84
2022/05/30 06:46:21;;;;;;;9.07;3.60;;;10.20;73.10;;;;;;5083539;28;20044;-84
2022/05/30 06:48:51;;;;;;;7.80;3.78;;;10.30;73.10;;;;;;5077938;28;20076;-84
2022/05/30 06:51:18;;;;;;;7.00;3.70;;;10.30;73.10;;;;;;5077484;28;20055;-85
2022/05/30 06:53:45;;;;;;;6.72;3.60;;;10.40;73.10;;;;;;5087239;28;20498;-83
2022/05/30 06:56:21;;;;;;;7.05;3.63;;;10.40;73.10;;;;;;5071909;28;20036;-85
2022/05/30 06:58:52;;;;;;;11.23;3.80;;;10.50;73.10;;;;;;5086585;28;20418;-84
2022/05/30 07:01:22;;;;;;;7.53;3.65;;;10.60;73.00;;;;;;5074845;28;20048;-86
2022/05/30 07:03:49;;;;;;;6.55;3.58;;;10.70;73.00;;;;;;5076427;28;20052;-86
2022/05/30 07:06:23;;;;;;;7.43;3.50;;;10.70;72.90;;;;;;5079300;28;20037;-86
2022/05/30 07:08:50;;;;;;;10.63;4.40;;;10.80;72.90;;;;;;5080194;28;20082;-86
2022/05/30 07:11:19;;;;;;;9.18;3.53;;;10.90;72.80;;;;;;5091489;28;20514;-87
2022/05/30 07:13:47;;;;;;;8.88;3.72;;;10.90;72.70;;;;;;5072882;28;20579;-86
2022/05/30 07:16:15;;;;;;;8.43;4.47;;;11.00;72.60;;;;;;5079176;28;20464;-85
2022/05/30 07:18:44;;;;;;;9.55;3.97;;;11.10;72.50;;;;;;5078903;28;20059;-84
2022/05/30 07:21:13;;;;;;;10.73;3.97;;;11.20;72.60;;;;;;5081100;28;20044;-84
2022/05/30 07:23:40;;;;;;;8.45;3.58;;;11.30;72.50;;;;;;5073032;28;20555;-87
2022/05/30 07:26:09;;;;;;;7.88;3.53;;;11.30;72.40;;;;;;5083910;28;20505;-86
2022/05/30 07:28:37;;;;;;;7.72;3.17;;;11.40;72.30;;;;;;5079076;28;20052;-86
2022/05/30 07:31:10;;;;;;;7.18;3.42;;;11.40;72.20;;;;;;5078530;28;20044;-83
2022/05/30 07:33:39;;;;;;;6.20;2.90;;;11.50;72.00;;;;;;5079226;28;20048;-83
2022/05/30 07:36:15;;;;;;;9.48;3.50;;;11.50;71.90;;;;;;5078896;28;20048;-83
2022/05/30 07:38:42;;;;;;;9.73;3.58;;;11.60;71.80;;;;;;5078301;28;20054;-83
2022/05/30 07:41:09;;;;;;;5.65;2.92;;;11.70;71.60;;;;;;5074579;28;20097;-82
2022/05/30 07:43:37;;;;;;;9.45;3.70;;;11.80;71.50;;;;;;5078754;28;20082;-83
2022/05/30 07:46:09;;;;;;;6.60;2.85;;;11.90;71.40;;;;;;5078112;28;20056;-82
2022/05/30 07:48:36;;;;;;;7.85;2.70;;;11.90;71.20;;;;;;5078616;28;20048;-82
2022/05/30 07:51:05;;;;;;;9.90;2.70;;;11.90;71.10;;;;;;5078992;28;20040;-82
2022/05/30 07:53:36;;;;;;;6.68;2.53;;;12.00;71.00;;;;;;5076768;28;20052;-83
2022/05/30 07:56:07;;;;;;;6.22;2.50;;;12.10;70.80;;;;;;5075532;28;20105;-83
2022/05/30 07:58:36;;;;;;;7.15;2.28;;;12.20;70.60;;;;;;5078402;28;20078;-82
2022/05/30 08:01:04;;;;;;;7.18;2.40;;;12.30;70.50;;;;;;5077884;28;20045;-82
2022/05/30 08:03:32;;;;;;;5.78;2.20;;;12.40;70.30;;;;;;5078403;28;20040;-83
2022/05/30 08:06:08;;;;;;;7.60;2.40;;;12.40;70.00;;;;;;5078549;28;20044;-82
2022/05/30 08:08:35;;;;;;;9.02;2.30;;;12.50;69.80;;;;;;5076988;28;20056;-82
2022/05/30 08:11:02;;;;;;;8.40;2.80;;;12.50;69.50;;;;;;5075041;28;20102;-82
2022/05/30 08:13:29;;;;;;;5.57;2.00;;;12.60;69.40;;;;;;5078387;28;20048;-82
2022/05/30 08:15:56;;;;;;;4.78;1.88;;;12.60;69.20;;;;;;5076848;28;20051;-82
2022/05/30 08:18:24;;;;;;;5.30;1.85;;;12.70;69.00;;;;;;5078008;28;20072;-82
2022/05/30 08:20:51;;;;;;;5.85;1.90;;;12.70;68.90;;;;;;5078133;28;20101;-81
2022/05/30 08:23:18;;;;;;;4.40;1.85;;;12.70;68.70;;;;;;5075120;28;20059;-82
2022/05/30 08:25:47;;;;;;;6.13;2.00;;;12.70;68.60;;;;;;5089539;28;20200;-82
2022/05/30 08:28:14;;;;;;;4.72;1.80;;;12.80;68.50;;;;;;5074771;28;20396;-81
2022/05/30 08:30:42;;;;;;;7.90;2.13;;;12.80;68.40;;;;;;5078126;28;20117;-82
2022/05/30 08:33:10;;;;;;;6.40;1.85;;;12.80;68.30;;;;;;5079176;28;20059;-82
2022/05/30 08:35:37;;;;;;;6.20;1.85;;;12.80;68.20;;;;;;5089386;28;20570;-81
2022/05/30 08:38:04;;;;;;;9.48;2.15;;;12.80;68.20;;;;;;5074185;28;20055;-81
2022/05/30 08:43:28;;;;;;;5.30;1.83;;;12.90;68.00;;;;;;5077409;28;20498;-81
2022/05/30 08:46:09;;;;;;;5.47;2.00;;;12.90;67.90;;;;;;5077639;28;20057;-81
2022/05/30 08:48:41;;;;;;;6.38;1.50;;;13.00;67.70;;;;;;5077849;28;20040;-82
2022/05/30 08:51:12;;;;;;;7.10;1.90;;;13.10;67.60;;;;;;5077858;28;20052;-82
2022/05/30 08:53:46;;;;;;;6.03;1.48;;;13.20;67.30;;;;;;5076798;28;20480;-82
2022/05/30 08:56:29;;;;;;;7.07;1.77;;;13.20;67.20;;;;;;5073612;28;20044;-81
2022/05/30 08:59:28;;;;;;;5.32;1.65;;;13.30;67.00;;;;;;5088808;28;20513;-81
2022/05/30 09:02:09;;;;;;;4.28;1.42;;;13.40;66.70;;;;;;5075194;28;20040;-81
2022/05/30 09:04:47;;;;;;;5.00;1.55;;;13.50;66.30;;;;;;5077354;28;20048;-83
2022/05/30 09:07:17;;;;;;;8.55;2.20;;;13.60;66.10;;;;;;5077839;28;20494;-81
2022/05/30 09:10:07;;;;;;;7.65;1.80;;;13.60;65.80;;;;;;5082515;28;20574;-80
2022/05/30 09:13:00;;;;;;;5.40;1.70;;;13.70;65.60;;;;;;5081722;28;20097;-81
2022/05/30 09:15:35;;;;;;;6.55;1.67;;;13.80;65.30;;;;;;5077310;28;20044;-80
2022/05/30 09:18:15;;;;;;;5.28;1.27;;;13.80;65.10;;;;;;5076800;28;20426;-81
2022/05/30 09:20:42;;;;;;;5.95;1.45;;;13.90;64.90;;;;;;5076299;28;20109;-81
2022/05/30 09:23:11;;;;;;;6.00;1.60;;;13.90;64.70;;;;;;5072894;28;20040;-80
2022/05/30 09:25:56;;;;;;;4.90;1.85;;;13.90;64.50;;;;;;5086873;28;20051;-81
2022/05/30 09:28:25;;;;;;;4.13;1.45;;;13.90;64.30;;;;;;5076274;28;20127;-82
2022/05/30 09:31:05;;;;;;;7.45;1.50;;;13.90;64.10;;;;;;5076733;28;20102;-81
2022/05/30 09:33:38;;;;;;;7.70;1.60;;;14.00;63.90;;;;;;5080089;28;20394;-81
2022/05/30 09:36:22;;;;;;;5.45;1.50;;;14.10;63.80;;;;;;5085579;28;20048;-80
2022/05/30 09:38:54;;;;;;;4.15;1.45;;;14.20;63.60;;;;;;5074380;28;20052;-83
2022/05/30 09:41:38;;;;;;;6.05;1.45;;;14.20;63.50;;;;;;5088508;28;20036;-82
2022/05/30 09:44:21;;;;;;;7.03;1.45;;;14.30;63.30;;;;;;5088503;28;20052;-82
2022/05/30 09:46:58;;;;;;;5.88;1.48;;;14.40;63.10;;;;;;5087831;28;20052;-81
2022/05/30 09:49:38;;;;;;;4.47;1.30;;;14.40;62.90;;;;;;5076505;28;20559;-82
2022/05/30 09:52:32;;;;;;;5.05;1.42;;;14.50;62.70;;;;;;5076402;28;20048;-82
2022/05/30 09:55:01;;;;;;;4.40;1.55;;;14.60;62.50;;;;;;5076707;28;20052;-82
2022/05/30 09:57:41;;;;;;;4.10;1.35;;;14.60;62.30;;;;;;5075885;28;20095;-82
2022/05/30 10:00:12;;;;;;;5.55;1.45;;;14.70;62.00;;;;;;5076616;28;20464;-82
2022/05/30 10:02:45;;;;;;;6.15;1.40;;;14.80;61.80;;;;;;5087746;28;20464;-82
2022/05/30 10:05:21;;;;;;;6.82;1.65;;;14.90;61.60;;;;;;5072254;28;20047;-82
2022/05/30 10:07:54;;;;;;;5.57;1.38;;;14.90;61.40;;;;;;5087734;28;20097;-82
2022/05/30 10:10:32;;;;;;;6.07;1.80;;;15.00;61.20;;;;;;5086613;28;20052;-81
2022/05/30 10:13:01;;;;;;;9.02;1.63;;;15.00;61.00;;;;;;5077658;28;20048;-81
2022/05/30 10:15:44;;;;;;;5.80;1.50;;;15.00;60.80;;;;;;5076133;28;20491;-81
2022/05/30 10:18:15;;;;;;;5.68;1.73;;;15.10;60.60;;;;;;5076401;28;20048;-82
2022/05/30 10:21:00;;;;;;;4.28;1.52;;;15.10;60.40;;;;;;5075635;28;20532;-82
2022/05/30 10:30:07;;;;;;;6.40;1.73;;;15.20;59.80;;;;;;5075286;28;20074;-81
2022/05/30 10:32:38;;;;;;;6.80;1.70;;;15.20;59.70;;;;;;5074641;28;20098;-81
2022/05/30 10:35:29;;;;;;;4.25;1.30;;;15.20;59.50;;;;;;5072434;28;20052;-81
2022/05/30 10:38:03;;;;;;;7.43;1.45;;;15.20;59.40;;;;;;5068657;28;20045;-81
2022/05/30 10:40:54;;;;;;;5.40;1.63;;;15.20;59.30;;;;;;5079499;28;20173;-81
2022/05/30 10:43:36;;;;;;;6.93;1.42;;;15.30;59.10;;;;;;5090438;28;20044;-81
2022/05/30 10:46:06;;;;;;;6.40;1.55;;;15.30;59.10;;;;;;5079974;28;20063;-81
2022/05/30 10:48:40;;;;;;;6.35;1.70;;;15.30;59.00;;;;;;5079961;28;20044;-81
2022/05/30 10:51:17;;;;;;;6.65;1.50;;;15.30;58.90;;;;;;5080203;28;20037;-81
2022/05/30 10:53:43;;;;;;;5.22;1.42;;;15.40;58.90;;;;;;5079258;28;20113;-81
2022/05/30 10:56:17;;;;;;;7.10;1.60;;;15.40;58.80;;;;;;5075607;28;20505;-81
2022/05/30 10:58:50;;;;;;;;;;;15.40;58.60;;;;;;5091452;28;20048;-81
2022/05/30 11:01:34;;;;;;;7.50;1.48;;;15.50;58.50;;;;;;5090063;28;20344;-82
2022/05/30 11:04:18;;;;;;;4.35;1.42;;;15.50;58.30;;;;;;5081034;28;20135;-82
2022/05/30 11:06:49;;;;;;;6.50;1.67;;;15.60;58.10;;;;;;5081376;28;20098;-81
2022/05/30 11:09:30;;;;;;;6.35;1.50;;;15.70;57.80;;;;;;5079088;28;20502;-81
2022/05/30 11:12:20;;;;;;;3.63;1.23;;;15.70;57.60;;;;;;5079857;28;20062;-81
2022/05/30 11:15:06;;;;;;;3.28;1.25;;;15.80;57.50;;;;;;5081026;28;20098;-81
2022/05/30 11:17:59;;;;;;;4.18;1.42;;;15.80;57.30;;;;;;5079286;28;20071;-82
2022/05/30 11:20:33;;;;;;;3.47;1.30;;;15.90;57.10;;;;;;5076640;28;20464;-82
2022/05/30 11:23:01;;;;;;;4.65;1.50;;;15.90;57.00;;;;;;5090704;28;20579;-81
2022/05/30 11:25:39;;;;;;;6.45;1.23;;;15.90;56.80;;;;;;5079143;28;20102;-82
2022/05/30 11:28:31;;;;;;;5.70;1.50;;;15.90;56.60;;;;;;5078925;28;20044;-82
2022/05/30 11:31:04;;;;;;;6.05;1.70;;;16.00;56.40;;;;;;5079236;28;20426;-81
2022/05/30 11:34:01;;;;;;;3.13;1.10;;;16.00;56.30;;;;;;5078748;28;20448;-82
2022/05/30 11:36:37;;;;;;;6.60;1.30;;;16.00;56.20;;;;;;5078907;28;20477;-82
2022/05/30 11:39:19;;;;;;;7.32;1.70;;;16.00;56.10;;;;;;5078352;28;20402;-81
2022/05/30 11:42:23;;;;;;;6.75;1.73;;;16.00;55.90;;;;;;5079178;28;20097;-82
2022/05/30 11:45:07;;;;;;;5.00;1.33;;;16.10;55.80;;;;;;5076354;28;20048;-82
2022/05/30 11:48:13;;;;;;;4.18;1.30;;;16.10;55.70;;;;;;5090354;28;20070;-82
2022/05/30 11:51:04;;;;;;;5.93;1.33;;;16.10;55.60;;;;;;5029348;28;20053;-81
2022/05/30 11:53:41;;;;;;;4.70;1.60;;;16.10;55.50;;;;;;5028223;28;20135;-82
2022/05/30 11:56:21;;;;;;;4.80;1.42;;;16.10;55.40;;;;;;5046683;28;20523;-81
2022/05/30 11:59:27;;;;;;;4.57;1.30;;;16.10;55.30;;;;;;5027621;28;20054;-81
2022/05/30 12:01:58;;;;;;;8.65;1.45;;;16.10;55.20;;;;;;5028318;28;20116;-81
2022/05/30 12:04:58;;;;;;;7.78;1.65;;;16.10;55.20;;;;;;5029865;28;20049;-81
2022/05/30 12:07:47;;;;;;;3.70;1.30;;;16.00;55.10;;;;;;5029294;28;20124;-82
2022/05/30 12:10:51;;;;;;;5.22;1.65;;;16.00;55.10;;;;;;5026633;28;20049;-81
2022/05/30 12:13:52;;;;;;;6.55;1.73;;;16.00;55.10;;;;;;4972568;28;20051;-82
2022/05/30 12:16:37;;;;;;;3.88;1.25;;;16.10;55.10;;;;;;4988867;28;20109;-82
2022/05/30 12:25:36;;;;;;;3.67;1.20;;;16.10;55.10;;;;;;5007827;28;20049;-81
2022/05/30 12:28:24;;;;;;;4.40;1.20;;;16.20;55.00;;;;;;5019697;28;20116;-82
2022/05/30 12:30:56;;;;;;;4.53;1.35;;;16.20;55.00;;;;;;5018370;28;20084;-82
2022/05/30 12:33:28;;;;;;;5.93;1.50;;;16.30;54.90;;;;;;5018739;28;20070;-82
2022/05/30 12:36:10;;;;;;;5.78;1.75;;;16.30;54.90;;;;;;5018351;28;20053;-82
2022/05/30 12:38:56;;;;;;;6.50;1.50;;;16.30;54.70;;;;;;5017565;28;20068;-82
2022/05/30 12:41:54;;;;;;;6.25;1.23;;;16.40;54.60;;;;;;5029977;28;20227;-82
2022/05/30 12:44:44;;;;;;;5.53;1.58;;;16.40;54.50;;;;;;5029934;28;20049;-82
2022/05/30 12:47:17;;;;;;;5.20;1.10;;;16.50;54.30;;;;;;5027022;28;20646;-81
2022/05/30 12:49:49;;;;;;;6.25;1.52;;;16.50;54.30;;;;;;5043174;28;20543;-81
2022/05/30 12:52:18;;;;;;;3.83;1.23;;;16.60;54.20;;;;;;5072740;28;20098;-82
2022/05/30 12:54:57;;;;;;;4.60;1.35;;;16.60;54.00;;;;;;5082555;28;20113;-81
2022/05/30 12:57:43;;;;;;;4.50;1.50;;;16.60;53.90;;;;;;5083922;28;20048;-81
2022/05/30 13:00:20;;;;;;;5.68;1.40;;;16.60;53.80;;;;;;5077776;28;20044;-81
2022/05/30 13:02:59;;;;;;;4.72;1.50;;;16.70;53.70;;;;;;5085483;28;20082;-82
2022/05/30 13:05:42;;;;;;;4.38;1.40;;;16.70;53.60;;;;;;5088726;28;20044;-82
2022/05/30 13:09:06;;;;;;;4.70;1.10;;;16.80;53.50;;;;;;5089822;28;20040;-81
2022/05/30 13:11:42;;;;;;;3.43;1.30;;;16.80;53.40;;;;;;5036092;28;20094;-82
2022/05/30 13:14:37;;;;;;;3.70;1.10;;;16.90;53.20;;;;;;5049287;28;20041;-82
2022/05/30 13:17:18;;;;;;;5.03;1.50;;;16.90;53.10;;;;;;5048158;28;20057;-82
2022/05/30 13:20:00;;;;;;;3.42;1.30;;;17.00;52.90;;;;;;5045759;28;20491;-81
2022/05/30 13:22:34;;;;;;;5.88;1.20;;;17.10;52.90;;;;;;5050269;28;20048;-81
2022/05/30 13:25:06;;;;;;;3.83;1.17;;;17.20;52.70;;;;;;5048843;28;20061;-81
2022/05/30 13:27:32;;;;;;;3.75;1.27;;;17.30;52.60;;;;;;5048925;28;20057;-81
2022/05/30 13:30:10;;;;;;;4.43;1.60;;;17.40;52.50;;;;;;5048868;28;20527;-82
2022/05/30 13:32:38;;;;;;;4.10;1.40;;;17.50;52.20;;;;;;5048883;28;20115;-81
2022/05/30 13:35:09;;;;;;;3.30;1.10;;;17.60;52.00;;;;;;5048399;28;20056;-81
2022/05/30 13:37:41;;;;;;;5.22;1.02;;;17.80;51.90;;;;;;5049987;28;20081;-81
2022/05/30 13:40:14;;;;;;;3.03;1.10;;;17.90;51.60;;;;;;5048796;28;20502;-81
2022/05/30 13:42:53;;;;;;;3.80;1.20;;;17.90;51.40;;;;;;5067114;28;20041;-82
2022/05/30 13:45:38;;;;;;;3.20;1.10;;;18.00;51.10;;;;;;5076472;28;20082;-81